Latest Weather Observations for Archerfield

IDQ60901

Issued at 11:35 pm EST Sunday 23 November 2014 (issued every 10 minutes, with the page automatically refreshed every 10 minutes)

About weather observations | Map of Brisbane area stations | Latest observations for Brisbane area | Other Formats
Station Details ID: 040211 Name: ARCHERFIELD AIRPORT Lat: -27.57 Lon: 153.01 Height: 12.5 m
Data from the previous 72 hours. | See also: Recent months at Archerfield
Date/Time
EST
Tmp

°C
App
Tmp
°C
Dew
Point
°C
Rel
Hum
%
Delta-T

°C
Wind Press
QNH
hPa
Press
MSL
hPa
Rain
since
9 am
mm
Dir
 
Spd
km/h
Gust
km/h
Spd
kts
Gust
kts
23/11:30pm 24.3 23.3 20.4 79 2.5 N 26 33 14 18 1016.8 1016.7 0.0
23/11:00pm 24.3 23.2 20.2 78 2.7 N 26 35 14 19 1016.7 1016.6 0.0
23/10:30pm 24.4 23.1 19.9 76 2.9 N 26 41 14 22 1016.5 1016.4 0.0
23/10:00pm 24.4 24.6 20.5 79 2.5 N 20 28 11 15 1016.6 1016.5 0.0
23/09:30pm 24.6 23.6 20.5 78 2.7 NNE 26 33 14 18 1016.4 1016.3 0.0
23/09:00pm 24.6 24.7 20.3 77 2.8 NNE 20 28 11 15 1016.4 1016.3 0.0
23/08:30pm 24.9 23.6 19.9 74 3.2 N 26 37 14 20 1016.2 1016.1 0.0
23/08:00pm 25.1 23.4 19.9 73 3.4 NNE 28 39 15 21 1015.8 1015.7 0.0
23/07:30pm 25.2 23.5 19.8 72 3.5 NNE 28 37 15 20 1015.1 1015.0 0.0
23/07:00pm 25.5 23.7 19.6 70 3.8 NNE 28 37 15 20 1014.9 1014.8 0.0
23/06:30pm 25.7 23.9 19.6 69 3.9 NNE 28 35 15 19 1014.6 1014.5 0.0
23/06:00pm 26.1 24.0 19.0 65 4.5 NNE 28 41 15 22 1014.1 1014.0 0.0
23/05:30pm 26.6 23.5 18.5 61 5.2 NNE 32 37 17 20 1013.6 1013.5 0.0
23/05:00pm 27.2 24.4 18.2 58 5.7 NNE 30 41 16 22 1013.3 1013.2 0.0
23/04:30pm 27.7 24.5 18.1 56 6.1 N 32 39 17 21 1013.5 1013.4 0.0
23/04:00pm 28.5 24.9 17.7 52 6.8 NNE 33 43 18 23 1013.9 1013.8 0.0
23/03:30pm 28.9 25.2 18.4 53 6.7 N 35 44 19 24 1013.4 1013.3 0.0
23/03:00pm 30.0 27.4 19.4 53 6.9 NNE 32 43 17 23 1013.9 1013.8 0.0
23/02:30pm 30.0 26.9 19.7 54 6.7 NNE 35 44 19 24 1014.1 1014.0 0.0
23/02:00pm 29.9 27.3 19.9 55 6.6 NNE 33 43 18 23 1014.4 1014.3 0.0
23/01:30pm 30.1 27.8 20.1 55 6.6 NNE 32 39 17 21 1014.6 1014.5 0.0
23/01:00pm 31.2 30.1 21.1 55 6.8 NNE 28 35 15 19 1015.1 1015.0 0.0
23/12:30pm 30.2 28.9 20.7 56 6.3 N 28 35 15 19 1015.4 1015.3 0.0
23/12:00pm 30.8 30.8 21.6 58 6.2 NNE 24 35 13 19 1015.8 1015.7 0.0
23/11:30am 29.6 29.1 20.7 58 5.9 NNE 24 32 13 17 1016.5 1016.4 0.0
23/11:00am 29.8 29.2 20.6 57 6.1 NNE 24 32 13 17 1016.8 1016.7 0.0
23/10:30am 30.7 31.7 20.3 53 6.9 N 15 24 8 13 1016.9 1016.8 0.0
23/10:00am 29.8 31.2 20.4 57 6.2 NNE 13 22 7 12 1017.1 1017.0 0.0
23/09:30am 29.4 31.3 19.7 56 6.3 N 9 19 5 10 1017.6 1017.5 0.0
23/09:00am 29.6 31.0 21.0 60 5.7 N 15 22 8 12 1017.5 1017.4 0.0
23/08:30am 28.0 28.6 20.3 63 5.1 N 17 26 9 14 1017.6 1017.5 0.0
23/08:00am 26.8 28.2 20.4 68 4.2 N 13 20 7 11 1017.6 1017.5 0.0
23/07:30am 26.5 27.5 21.0 72 3.6 N 17 20 9 11 1017.8 1017.7 0.0
23/07:00am 25.8 26.8 21.0 75 3.2 N 17 22 9 12 1017.6 1017.5 0.0
23/06:30am 25.5 26.6 21.2 77 2.8 N 17 22 9 12 1017.3 1017.2 0.0
23/06:00am 25.1 25.3 21.4 80 2.4 N 22 28 12 15 1016.8 1016.7 0.0
23/05:30am 24.5 25.9 21.0 81 2.3 N 15 22 8 12 1016.2 1016.1 0.0
23/05:00am 23.8 25.1 20.9 84 1.9 N 15 20 8 11 1015.9 1015.8 0.0
23/04:30am 23.8 24.7 20.9 84 1.9 N 17 20 9 11 1015.5 1015.4 0.0
23/04:00am 23.7 25.0 20.8 84 1.9 N 15 20 8 11 1015.1 1015.0 0.0
23/03:30am 24.1 24.4 20.8 82 2.2 N 20 24 11 13 1014.6 1014.5 0.0
23/03:00am 24.4 24.9 20.9 81 2.3 N 19 24 10 13 1014.5 1014.4 0.0
23/02:30am 24.5 25.5 21.0 81 2.3 N 17 24 9 13 1014.4 1014.3 0.0
23/02:00am 24.5 25.0 21.2 82 2.2 N 20 30 11 16 1014.4 1014.3 0.0
23/01:30am 24.5 26.1 21.4 83 2.0 N 15 24 8 13 1014.4 1014.3 0.0
23/01:00am 24.6 25.9 21.7 84 1.9 NNE 17 22 9 12 1014.5 1014.4 0.0
23/12:30am 24.7 25.6 21.6 83 2.1 N 19 28 10 15 1014.8 1014.7 0.0
23/12:00am 24.8 26.1 21.7 83 2.1 NNE 17 24 9 13 1014.9 1014.8 0.0
 
Date/Time
EST
Tmp

°C
App
Tmp
°C
Dew
Point
°C
Rel
Hum
%
Delta-T

°C
Wind Press
QNH
hPa
Press
MSL
hPa
Rain
since
9 am
mm
Dir
 
Spd
km/h
Gust
km/h
Spd
kts
Gust
kts
22/11:30pm 24.9 25.8 21.6 82 2.2 N 19 24 10 13 1015.1 1015.0 0.0
22/11:00pm 24.9 25.1 21.4 81 2.3 NNE 22 30 12 16 1015.0 1014.9 0.0
22/10:30pm 25.0 25.3 21.5 81 2.3 NNE 22 28 12 15 1015.1 1015.0 0.0
22/10:00pm 25.1 25.3 21.4 80 2.4 NNE 22 30 12 16 1015.0 1014.9 0.0
22/09:30pm 25.0 25.2 21.3 80 2.4 NNE 22 30 12 16 1014.7 1014.6 0.0
22/09:00pm 25.2 25.4 21.3 79 2.6 NNE 22 35 12 19 1014.5 1014.4 0.0
22/08:30pm 25.4 24.4 21.3 78 2.7 NNE 28 39 15 21 1014.1 1014.0 0.0
22/08:00pm 25.4 25.6 21.3 78 2.7 NNE 22 32 12 17 1013.9 1013.8 0.0
22/07:30pm 25.5 25.3 21.2 77 2.8 NNE 24 35 13 19 1013.5 1013.4 0.0
22/07:00pm 25.7 25.2 21.4 77 2.9 NNE 26 37 14 20 1013.1 1013.0 0.0
22/06:30pm 26.0 25.1 21.4 76 3.1 NNE 28 41 15 22 1012.6 1012.5 0.0
22/06:00pm 26.3 25.5 21.7 76 3.1 NNE 28 39 15 21 1012.0 1011.9 0.0
22/05:30pm 26.6 25.8 21.6 74 3.3 NNE 28 39 15 21 1011.9 1011.8 0.0
22/05:00pm 27.5 26.9 22.0 72 3.7 NNE 28 35 15 19 1011.6 1011.5 0.0
22/04:30pm 28.3 26.8 21.8 68 4.4 NNE 32 41 17 22 1011.2 1011.1 0.0
22/04:00pm 28.7 26.8 22.0 67 4.5 NNE 35 44 19 24 1011.1 1011.0 0.0
22/03:30pm 29.2 27.5 21.7 64 5.0 N 33 43 18 23 1011.1 1011.0 0.0
22/03:00pm 30.5 29.5 22.7 63 5.3 NNE 32 41 17 22 1011.2 1011.1 0.0
22/02:30pm 30.0 28.5 22.7 65 5.0 NNE 35 46 19 25 1011.6 1011.5 0.0
22/02:00pm 29.9 28.5 22.3 63 5.2 N 33 43 18 23 1012.0 1011.9 0.0
22/01:30pm 31.1 30.0 22.4 60 5.9 NE 32 43 17 23 1012.2 1012.1 0.0
22/01:00pm 31.3 31.2 22.9 61 5.8 NE 28 39 15 21 1012.4 1012.3 0.0
22/12:30pm 31.3 31.6 22.9 61 5.8 NE 26 39 14 21 1012.7 1012.6 0.0
22/12:00pm 31.5 32.5 22.2 57 6.3 N 20 28 11 15 1013.2 1013.1 0.0
22/11:30am 31.2 32.0 21.4 56 6.6 N 19 22 10 12 1013.5 1013.4 0.0
22/11:00am 31.4 32.0 22.1 57 6.3 NE 22 28 12 15 1013.7 1013.6 0.0
22/10:30am 30.9 32.6 20.2 53 7.1 NNE 11 22 6 12 1014.2 1014.1 0.0
22/10:00am 31.5 33.3 21.1 54 7.0 NE 13 28 7 15 1014.4 1014.3 0.0
22/09:30am 29.9 31.8 20.5 57 6.2 NNE 11 19 6 10 1014.7 1014.6 0.0
22/09:00am 29.1 31.1 20.0 58 6.0 N 9 17 5 9 1014.7 1014.6 0.0
22/08:30am 28.7 29.3 20.2 60 5.6 N 17 24 9 13 1014.9 1014.8 0.0
22/08:00am 27.0 27.9 20.1 66 4.5 N 15 19 8 10 1015.1 1015.0 0.0
22/07:30am 26.9 28.1 20.0 66 4.5 N 13 22 7 12 1015.0 1014.9 0.0
22/07:00am 26.1 27.3 20.7 72 3.5 N 15 20 8 11 1015.1 1015.0 0.0
22/06:30am 25.3 26.3 21.0 77 2.8 N 17 22 9 12 1014.6 1014.5 0.0
22/06:00am 24.9 25.8 20.8 78 2.7 N 17 20 9 11 1014.2 1014.1 0.0
22/05:30am 24.1 25.7 20.8 82 2.2 N 13 19 7 10 1014.0 1013.9 0.0
22/05:00am 23.9 24.6 20.4 81 2.3 N 17 20 9 11 1013.7 1013.6 0.0
22/04:30am 24.1 24.8 20.4 80 2.4 N 17 20 9 11 1013.1 1013.0 0.0
22/04:00am 24.2 24.8 20.3 79 2.5 N 17 20 9 11 1012.7 1012.6 0.0
22/03:30am 24.2 25.2 20.3 79 2.5 N 15 19 8 10 1012.3 1012.2 0.0
22/03:00am 24.2 25.6 20.3 79 2.5 NNE 13 20 7 11 1012.2 1012.1 0.0
22/02:30am 24.3 25.7 20.4 79 2.5 N 13 19 7 10 1012.0 1011.9 0.0
22/02:00am 24.6 25.6 20.3 77 2.8 NNW 15 24 8 13 1011.8 1011.7 0.0
22/01:30am 24.6 24.8 20.5 78 2.7 N 20 28 11 15 1011.5 1011.4 0.0
22/01:00am 24.8 26.1 20.9 79 2.6 N 15 22 8 12 1011.6 1011.5 0.0
22/12:30am 24.8 25.8 21.1 80 2.4 N 17 22 9 12 1012.1 1012.0 0.0
22/12:00am 24.9 25.5 21.4 81 2.3 N 20 26 11 14 1012.4 1012.3 0.0
 
Date/Time
EST
Tmp

°C
App
Tmp
°C
Dew
Point
°C
Rel
Hum
%
Delta-T

°C
Wind Press
QNH
hPa
Press
MSL
hPa
Rain
since
9 am
mm
Dir
 
Spd
km/h
Gust
km/h
Spd
kts
Gust
kts
21/11:30pm 25.3 26.0 21.6 80 2.5 N 20 30 11 16 1012.3 1012.2 0.0
21/11:00pm 25.2 26.5 21.7 81 2.3 N 17 26 9 14 1012.9 1012.8 0.0
21/10:30pm 25.3 26.1 21.8 81 2.3 N 20 26 11 14 1013.2 1013.1 0.0
21/10:00pm 25.5 27.7 21.8 80 2.5 N 13 24 7 13 1013.5 1013.4 0.0
21/09:30pm 25.5 26.4 22.0 81 2.3 N 20 30 11 16 1013.3 1013.2 0.0
21/09:00pm 25.5 26.4 22.0 81 2.3 NNE 20 28 11 15 1013.1 1013.0 0.0
21/08:30pm 25.5 25.3 22.0 81 2.3 N 26 35 14 19 1012.5 1012.4 0.0
21/08:00pm 25.4 25.1 21.9 81 2.3 NNE 26 37 14 20 1011.8 1011.7 0.0
21/07:30pm 25.4 25.9 21.9 81 2.3 NNE 22 28 12 15 1012.3 1012.2 0.0
21/07:00pm 25.6 25.7 21.9 80 2.5 N 24 30 13 16 1011.8 1011.7 0.0
21/06:30pm 25.8 25.4 21.7 78 2.7 N 26 37 14 20 1011.6 1011.5 0.0
21/06:00pm 26.2 24.7 21.8 77 2.9 NNE 32 44 17 24 1011.3 1011.2 0.0
21/05:30pm 26.6 25.2 22.0 76 3.1 NNE 32 43 17 23 1010.8 1010.7 0.0
21/05:00pm 26.8 24.5 21.3 72 3.7 NNE 35 50 19 27 1010.6 1010.5 0.0
21/04:30pm 27.6 24.7 21.6 70 4.0 NNE 39 48 21 26 1010.4 1010.3 0.0
21/04:00pm 28.6 26.7 22.1 68 4.4 NNE 35 46 19 25 1010.7 1010.6 0.0
21/03:30pm 28.8 27.0 21.6 65 4.8 N 33 43 18 23 1010.9 1010.8 0.0
21/03:00pm 29.4 28.0 21.9 64 5.1 N 32 43 17 23 1010.9 1010.8 0.0
21/02:30pm 29.5 27.7 21.2 61 5.5 NNE 32 44 17 24 1011.1 1011.0 0.0
21/02:00pm 29.2 28.1 21.7 64 5.0 NNE 30 39 16 21 1011.5 1011.4 0.0
21/01:30pm 30.6 30.0 22.7 62 5.4 NNE 30 39 16 21 1011.9 1011.8 0.0
21/01:00pm 30.0 28.9 21.7 61 5.6 NNE 30 39 16 21 1012.1 1012.0 0.0
21/12:30pm 30.5 29.8 21.8 59 5.9 N 28 33 15 18 1012.8 1012.7 0.0
21/12:00pm 30.1 29.3 21.7 60 5.7 NNE 28 35 15 19 1013.3 1013.2 0.0
21/11:30am 30.3 29.4 21.4 59 6.0 NNE 28 37 15 20 1013.7 1013.6 0.0
21/11:00am 30.2 29.8 21.0 58 6.1 NNE 24 32 13 17 1014.1 1014.0 0.0
21/10:30am 29.4 28.9 20.0 57 6.2 NNE 22 30 12 16 1014.4 1014.3 0.0
21/10:00am 30.3 30.9 20.2 54 6.7 N 17 24 9 13 1014.9 1014.8 0.0
21/09:30am 28.6 29.0 19.8 59 5.7 NNW 17 24 9 13 1015.3 1015.2 0.0
21/09:00am 28.7 28.6 19.9 59 5.8 N 20 28 11 15 1015.5 1015.4 0.0
21/08:30am 27.2 27.2 19.8 64 4.8 NNW 19 26 10 14 1015.8 1015.7 0.0
21/08:00am 26.9 26.2 20.3 67 4.3 N 24 32 13 17 1015.8 1015.7 0.0
21/07:33am 26.3 27.1 21.7 76 3.1 N 20 26 11 14 1015.9 1015.8 0.0
21/07:30am 25.6 26.7 21.9 80 2.5 N 19 24 10 13 1016.0 1015.9 0.0
21/07:00am 25.2 26.1 21.5 80 2.5 N 19 22 10 12 1016.0 1015.9 0.0
21/06:48am 24.4 24.9 21.1 82 2.2 N 20 28 11 15 1016.0 1015.9 0.0
21/06:30am 24.5 26.3 21.2 82 2.2 N 13 15 7 8 1015.8 1015.7 0.0
21/06:00am 23.7 25.9 21.2 86 1.6 N 11 15 6 8 1015.6 1015.5 0.0
21/05:30am 23.0 24.7 20.9 88 1.4 N 13 19 7 10 1015.1 1015.0 0.0
21/05:00am 22.8 23.8 21.1 90 1.1 N 17 22 9 12 1015.2 1015.1 0.0
21/04:30am 22.3 24.2 20.6 90 1.1 N 11 15 6 8 1014.8 1014.7 0.0
21/04:00am 22.5 24.0 20.6 89 1.2 N 13 19 7 10 1014.6 1014.5 0.0
21/03:30am 22.8 24.3 20.5 87 1.5 N 13 19 7 10 1014.6 1014.5 0.0
21/03:00am 23.1 24.6 20.6 86 1.6 N 13 17 7 9 1014.5 1014.4 0.0
21/02:30am 23.6 24.9 20.9 85 1.8 NNW 15 19 8 10 1014.8 1014.7 0.0
21/02:00am 23.5 24.9 21.0 86 1.6 NNW 15 19 8 10 1014.9 1014.8 0.0
21/01:30am 24.0 25.5 21.3 85 1.8 NNW 15 19 8 10 1014.8 1014.7 0.0
21/01:00am 23.9 26.4 21.0 84 1.9 N 9 15 5 8 1014.9 1014.8 0.0
21/12:30am 23.7 25.7 20.8 84 1.9 N 11 17 6 9 1015.3 1015.2 0.0
21/12:00am 23.7 24.5 20.6 83 2.0 N 17 24 9 13 1015.6 1015.5 0.0

Latest Capital City Observations: Canberra | Sydney | Melbourne | Brisbane | Adelaide | Perth | Hobart | Darwin

Other Formats:

Comma delimited format used in spreadsheet applications
http://www.bom.gov.au/fwo/IDQ60901/IDQ60901.94575.axf

JavaScript Object Notation format (JSON) in row-major order
http://www.bom.gov.au/fwo/IDQ60901/IDQ60901.94575.json